Alden, Kansas
Current Conditions -  °F | °C
As of 5:52 AM on Friday 21 Nov 2014 (Local Time) from KHUT Reporting Station
Clear Clear  
Wind Chill: 19°   Ceiling: Unl
Heat Index: 26°   Visibility: 10mi
Dew Point: 20°   Wind: 6mph
Humidity: 78%   Direction: 50°NE
Pressure: 30.1"   Gusts: NA
Location:  38.24°N, 98.31°W
Report Text: KHUT 211152Z AUTO 05005KT 10SM CLR M03/M07 A3010 RMK AO2 SLP200 T10331067 10000 21033 56013
Loading
Personal Weather Stations






























Interactive Weather Map New forecast layout! Learn more

10-Day Weather Forecast

Advertisements
Track Severe Weather on mobile